createdAt,value
2022-08-19T00:02:04.501Z,20.30
2022-08-19T00:04:37.372Z,20.30
2022-08-19T00:07:07.565Z,20.30
2022-08-19T00:09:34.921Z,20.30
2022-08-19T00:12:02.706Z,20.20
2022-08-19T00:14:32.320Z,20.20
2022-08-19T00:16:59.887Z,20.20
2022-08-19T00:19:30.335Z,20.20
2022-08-19T00:21:57.549Z,20.20
2022-08-19T00:24:24.834Z,20.10
2022-08-19T00:26:53.523Z,20.10
2022-08-19T00:29:23.203Z,20.10
2022-08-19T00:31:54.492Z,20.10
2022-08-19T00:34:23.159Z,20.10
2022-08-19T00:36:50.447Z,20.00
2022-08-19T00:39:18.481Z,20.00
2022-08-19T00:41:49.945Z,20.00
2022-08-19T00:44:28.336Z,20.00
2022-08-19T00:46:59.836Z,19.90
2022-08-19T00:49:52.242Z,19.90
2022-08-19T00:52:29.783Z,19.90
2022-08-19T00:54:59.397Z,19.90
2022-08-19T00:57:35.246Z,19.90
2022-08-19T01:00:07.901Z,19.80
2022-08-19T01:02:34.807Z,19.80
2022-08-19T01:05:09.026Z,19.80
2022-08-19T01:07:39.702Z,19.80
2022-08-19T01:10:12.345Z,19.80
2022-08-19T01:12:40.373Z,19.80
2022-08-19T01:15:10.679Z,19.80
2022-08-19T01:17:41.797Z,19.80
2022-08-19T01:20:17.545Z,19.70
2022-08-19T01:22:48.338Z,19.70
2022-08-19T01:25:19.477Z,19.70
2022-08-19T01:27:53.346Z,19.70
2022-08-19T01:30:34.060Z,19.60
2022-08-19T01:33:02.629Z,19.70
2022-08-19T01:35:32.408Z,19.60
2022-08-19T01:38:08.516Z,19.60
2022-08-19T01:40:40.898Z,19.60
2022-08-19T01:43:08.708Z,19.60
2022-08-19T01:45:38.432Z,19.60
2022-08-19T01:48:06.009Z,19.60
2022-08-19T01:50:35.839Z,19.60
2022-08-19T01:53:08.044Z,19.60
2022-08-19T01:55:41.544Z,19.50
2022-08-19T01:58:19.687Z,19.50
2022-08-19T02:00:48.592Z,19.50
2022-08-19T02:03:16.905Z,19.50
2022-08-19T02:05:46.545Z,19.50
2022-08-19T02:08:13.724Z,19.50
2022-08-19T02:10:44.027Z,19.50
2022-08-19T02:13:12.393Z,19.50
2022-08-19T02:15:39.816Z,19.50
2022-08-19T02:18:08.287Z,19.40
2022-08-19T02:20:36.614Z,19.40
2022-08-19T02:23:04.476Z,19.40
2022-08-19T02:25:31.512Z,19.40
2022-08-19T02:27:58.488Z,19.40
2022-08-19T02:30:25.973Z,19.30
2022-08-19T02:32:54.001Z,19.30
2022-08-19T02:35:22.388Z,19.30
2022-08-19T02:38:08.118Z,19.30
2022-08-19T02:40:35.672Z,19.30
2022-08-19T02:43:09.377Z,19.20
2022-08-19T02:45:40.520Z,19.30
2022-08-19T02:48:17.925Z,19.20
2022-08-19T02:50:54.687Z,19.20
2022-08-19T02:53:27.777Z,19.20
2022-08-19T02:55:55.825Z,19.20
2022-08-19T02:58:25.163Z,19.20
2022-08-19T03:00:57.408Z,19.10
2022-08-19T03:03:24.547Z,19.10
2022-08-19T03:05:56.851Z,19.10
2022-08-19T03:08:26.720Z,19.10
2022-08-19T03:10:54.796Z,19.10
2022-08-19T03:13:24.214Z,19.00
2022-08-19T03:15:51.243Z,19.00
2022-08-19T03:18:19.079Z,19.00
2022-08-19T03:20:53.024Z,19.00
2022-08-19T03:23:19.973Z,19.00
2022-08-19T03:26:03.991Z,19.00
2022-08-19T03:28:38.803Z,19.00
2022-08-19T03:31:43.584Z,18.90
2022-08-19T03:33:59.714Z,18.90
2022-08-19T03:36:29.612Z,18.90
2022-08-19T03:39:01.480Z,18.90
2022-08-19T03:41:44.487Z,18.90
2022-08-19T03:44:23.065Z,18.80
2022-08-19T03:47:00.014Z,18.80
2022-08-19T03:49:31.305Z,18.80
2022-08-19T03:52:01.397Z,18.80
2022-08-19T03:54:29.407Z,18.80
2022-08-19T03:56:58.150Z,18.80
2022-08-19T03:59:30.320Z,18.70
2022-08-19T04:02:00.791Z,18.70
2022-08-19T04:04:29.796Z,18.70
2022-08-19T04:06:59.156Z,18.70
2022-08-19T04:09:26.776Z,18.60
2022-08-19T04:11:57.898Z,18.60
2022-08-19T04:14:31.192Z,18.60
2022-08-19T04:17:00.463Z,18.60
2022-08-19T04:19:29.975Z,18.60
2022-08-19T04:21:56.917Z,18.50
2022-08-19T04:24:24.553Z,18.50
2022-08-19T04:26:52.404Z,18.50
2022-08-19T04:29:25.691Z,18.50
2022-08-19T04:31:55.700Z,18.50
2022-08-19T04:34:27.803Z,18.40
2022-08-19T04:36:57.098Z,18.40
2022-08-19T04:39:50.491Z,18.40
2022-08-19T04:42:45.513Z,18.40
2022-08-19T04:45:15.919Z,18.30
2022-08-19T04:47:47.699Z,18.30
2022-08-19T04:50:27.081Z,18.30
2022-08-19T04:52:54.649Z,18.30
2022-08-19T04:55:22.057Z,18.30
2022-08-19T04:57:49.821Z,18.30
2022-08-19T05:00:16.879Z,18.30
2022-08-19T05:02:44.113Z,18.30
2022-08-19T05:05:11.448Z,18.40
2022-08-19T05:07:38.352Z,18.40
2022-08-19T05:10:06.978Z,18.40
2022-08-19T05:12:34.716Z,18.40
2022-08-19T05:15:05.377Z,18.40
2022-08-19T05:17:37.773Z,18.50
2022-08-19T05:20:27.012Z,18.50
2022-08-19T05:22:54.129Z,18.60
2022-08-19T05:25:22.397Z,18.60
2022-08-19T05:27:49.712Z,18.70
2022-08-19T05:30:18.274Z,18.70
2022-08-19T05:32:45.721Z,18.80
2022-08-19T05:35:13.087Z,18.80
2022-08-19T05:37:43.781Z,18.90
2022-08-19T05:40:11.830Z,19.00
2022-08-19T05:42:39.017Z,19.10
2022-08-19T05:45:07.390Z,19.20
2022-08-19T05:47:34.326Z,19.30
2022-08-19T05:50:05.154Z,19.40
2022-08-19T05:52:32.566Z,19.50
2022-08-19T05:55:01.046Z,19.60
2022-08-19T05:57:29.924Z,19.70
2022-08-19T05:59:59.100Z,19.80
2022-08-19T06:02:28.391Z,19.90
2022-08-19T06:04:56.102Z,20.00
2022-08-19T06:07:23.801Z,20.10
2022-08-19T06:10:00.585Z,20.30
2022-08-19T06:12:35.189Z,20.40
2022-08-19T06:15:12.484Z,20.50
2022-08-19T06:17:40.080Z,20.60
2022-08-19T06:20:14.150Z,20.70
2022-08-19T06:22:45.381Z,20.90
2022-08-19T06:25:14.690Z,21.00
2022-08-19T06:28:11.481Z,21.10
2022-08-19T06:30:29.971Z,21.20
2022-08-19T06:32:56.885Z,21.30
2022-08-19T06:35:24.195Z,21.40
2022-08-19T06:37:51.237Z,21.50
2022-08-19T06:40:18.590Z,21.70
2022-08-19T06:42:54.424Z,21.80
2022-08-19T06:45:24.577Z,21.90
2022-08-19T06:47:55.210Z,22.00
2022-08-19T06:50:25.222Z,22.10
2022-08-19T06:52:52.332Z,22.20
2022-08-19T06:55:20.209Z,22.30
2022-08-19T06:57:49.080Z,22.40
2022-08-19T07:00:16.842Z,22.50
2022-08-19T07:02:49.685Z,22.60
2022-08-19T07:05:23.394Z,22.70
2022-08-19T07:07:50.978Z,22.80
2022-08-19T07:10:19.318Z,22.90
2022-08-19T07:12:47.521Z,23.00
2022-08-19T07:15:14.597Z,23.10
2022-08-19T07:17:42.163Z,23.20
2022-08-19T07:20:11.102Z,23.30
2022-08-19T07:22:40.080Z,23.30
2022-08-19T07:25:10.728Z,23.40
2022-08-19T07:27:39.490Z,23.50
2022-08-19T07:30:11.655Z,23.60
2022-08-19T07:32:40.368Z,23.70
2022-08-19T07:35:09.427Z,23.70
2022-08-19T07:37:38.194Z,23.90
2022-08-19T07:40:08.393Z,24.00
2022-08-19T07:42:35.375Z,24.10
2022-08-19T07:45:02.345Z,24.20
2022-08-19T07:47:48.056Z,24.30
2022-08-19T07:50:18.851Z,24.40
2022-08-19T07:52:48.994Z,24.50
2022-08-19T07:55:42.111Z,24.60
2022-08-19T07:58:15.337Z,24.70
2022-08-19T08:00:44.511Z,24.80
2022-08-19T08:03:12.579Z,25.00
2022-08-19T08:05:58.523Z,25.10
2022-08-19T08:08:47.891Z,25.30
2022-08-19T08:11:20.518Z,25.50
2022-08-19T08:14:00.484Z,25.60
2022-08-19T08:16:34.803Z,25.80
2022-08-19T08:19:01.791Z,25.90
2022-08-19T08:21:28.816Z,26.00
2022-08-19T08:23:56.712Z,26.20
2022-08-19T08:26:25.906Z,26.30
2022-08-19T08:28:54.264Z,26.40
2022-08-19T08:31:21.346Z,26.50
2022-08-19T08:33:48.899Z,26.60
2022-08-19T08:36:17.262Z,26.70
2022-08-19T08:38:49.005Z,26.80
2022-08-19T08:41:47.351Z,26.90
2022-08-19T08:47:31.561Z,27.20
2022-08-19T08:50:07.762Z,27.30
2022-08-19T08:52:51.373Z,27.40
2022-08-19T08:55:27.940Z,27.40
2022-08-19T08:58:21.592Z,27.50
2022-08-19T09:00:50.894Z,27.60
2022-08-19T09:03:23.162Z,27.70
2022-08-19T09:06:23.628Z,27.80
2022-08-19T09:09:23.225Z,27.90
2022-08-19T09:12:39.855Z,28.00
2022-08-19T09:15:14.456Z,28.10
2022-08-19T09:17:41.609Z,28.20
2022-08-19T09:20:11.758Z,28.30
2022-08-19T09:22:45.002Z,28.50
2022-08-19T09:25:17.090Z,28.60
2022-08-19T09:28:02.573Z,28.70
2022-08-19T09:30:35.523Z,28.80
2022-08-19T09:33:03.222Z,28.90
2022-08-19T09:35:31.387Z,29.00
2022-08-19T09:38:00.122Z,29.10
2022-08-19T09:40:35.470Z,29.10
2022-08-19T09:43:10.085Z,29.20
2022-08-19T09:45:40.443Z,29.30
2022-08-19T09:48:07.339Z,29.30
2022-08-19T09:50:39.468Z,29.40
2022-08-19T09:53:19.941Z,29.40
2022-08-19T09:55:46.966Z,29.50
2022-08-19T09:58:13.918Z,29.50
2022-08-19T10:00:40.922Z,29.60
2022-08-19T10:03:07.790Z,29.70
2022-08-19T10:05:55.201Z,29.70
2022-08-19T10:08:34.805Z,29.80
2022-08-19T10:11:28.340Z,29.90
2022-08-19T10:13:50.676Z,30.00
2022-08-19T10:16:22.435Z,30.00
2022-08-19T10:18:58.920Z,30.10
2022-08-19T10:21:32.106Z,30.10
2022-08-19T10:24:04.852Z,30.10
2022-08-19T10:26:37.914Z,30.10
2022-08-19T10:29:06.596Z,30.20
2022-08-19T10:32:02.219Z,30.20
2022-08-19T10:34:28.045Z,30.30
2022-08-19T10:37:01.010Z,30.30
2022-08-19T10:39:42.977Z,30.30
2022-08-19T10:42:11.635Z,30.40
2022-08-19T10:44:38.727Z,30.50
2022-08-19T10:47:24.373Z,30.60
2022-08-19T10:50:13.644Z,30.60
2022-08-19T10:52:49.865Z,30.60
2022-08-19T10:55:43.999Z,30.60
2022-08-19T10:58:14.592Z,30.60
2022-08-19T11:00:44.186Z,30.60
2022-08-19T11:03:11.930Z,30.60
2022-08-19T11:05:40.366Z,30.70
2022-08-19T11:08:22.170Z,30.70
2022-08-19T11:11:01.474Z,30.70
2022-08-19T11:13:30.977Z,30.70
2022-08-19T11:16:06.547Z,30.70
2022-08-19T11:18:38.651Z,30.80
2022-08-19T11:21:19.793Z,30.80
2022-08-19T11:23:50.127Z,30.80
2022-08-19T11:26:18.703Z,30.80
2022-08-19T11:28:47.980Z,30.80
2022-08-19T11:31:32.277Z,30.80
2022-08-19T11:34:04.850Z,30.80
2022-08-19T11:36:35.766Z,30.80
2022-08-19T11:39:06.066Z,30.90
2022-08-19T11:41:36.798Z,31.00
2022-08-19T11:44:05.462Z,31.10
2022-08-19T11:46:32.911Z,31.10
2022-08-19T11:49:01.687Z,31.10
2022-08-19T11:51:29.848Z,31.20
2022-08-19T11:53:59.420Z,31.20
2022-08-19T11:56:28.884Z,31.30
2022-08-19T11:58:57.775Z,31.40
2022-08-19T12:01:27.310Z,31.40
2022-08-19T12:03:57.541Z,31.40
2022-08-19T12:06:33.376Z,31.40
2022-08-19T12:09:06.574Z,31.40
2022-08-19T12:11:34.747Z,31.50
2022-08-19T12:14:01.996Z,31.50
2022-08-19T12:16:33.535Z,31.60
2022-08-19T12:19:04.803Z,31.60
2022-08-19T12:21:36.045Z,31.70
2022-08-19T12:24:06.016Z,31.80
2022-08-19T12:26:36.051Z,31.80
2022-08-19T12:29:24.017Z,31.80
2022-08-19T12:31:52.841Z,31.80
2022-08-19T12:34:21.019Z,31.80
2022-08-19T12:36:50.082Z,31.80
2022-08-19T12:39:17.230Z,31.70
2022-08-19T12:41:54.282Z,31.70
2022-08-19T12:44:29.007Z,31.60
2022-08-19T12:46:57.863Z,31.60
2022-08-19T12:49:53.160Z,31.60
2022-08-19T12:52:16.627Z,31.50
2022-08-19T12:54:48.488Z,31.50
2022-08-19T12:57:19.528Z,31.40
2022-08-19T12:59:46.560Z,31.30
2022-08-19T13:02:13.614Z,31.10
2022-08-19T13:04:41.731Z,31.10
2022-08-19T13:07:10.048Z,31.10
2022-08-19T13:09:37.193Z,31.10
2022-08-19T13:12:08.621Z,31.10
2022-08-19T13:14:36.284Z,31.10
2022-08-19T13:17:04.410Z,31.20
2022-08-19T13:19:32.490Z,31.20
2022-08-19T13:22:00.519Z,31.30
2022-08-19T13:24:33.611Z,31.40
2022-08-19T13:27:04.464Z,31.40
2022-08-19T13:29:50.397Z,31.50
2022-08-19T13:32:37.025Z,31.60
2022-08-19T13:35:05.996Z,31.60
2022-08-19T13:37:45.462Z,31.60
2022-08-19T13:40:24.942Z,31.70
2022-08-19T13:42:55.825Z,31.70
2022-08-19T13:45:26.989Z,31.80
2022-08-19T13:47:59.705Z,31.80
2022-08-19T13:50:34.532Z,31.90
2022-08-19T13:53:03.272Z,32.00
2022-08-19T13:55:31.008Z,32.00
2022-08-19T13:58:02.667Z,32.10
2022-08-19T14:00:36.732Z,32.20
2022-08-19T14:03:09.438Z,32.30
2022-08-19T14:05:37.529Z,32.40
2022-08-19T14:08:05.462Z,32.40
2022-08-19T14:10:33.236Z,32.40
2022-08-19T14:13:04.629Z,32.50
2022-08-19T14:15:32.188Z,32.60
2022-08-19T14:18:03.162Z,32.60
2022-08-19T14:20:30.539Z,32.70
2022-08-19T14:22:57.400Z,32.70
2022-08-19T14:25:28.981Z,32.80
2022-08-19T14:27:56.776Z,32.80
2022-08-19T14:30:33.379Z,32.80
2022-08-19T14:33:03.577Z,32.80
2022-08-19T14:35:36.124Z,32.80
2022-08-19T14:38:06.756Z,32.80
2022-08-19T14:40:34.420Z,32.80
2022-08-19T14:43:05.356Z,32.80
2022-08-19T14:45:40.755Z,32.80
2022-08-19T14:48:12.525Z,32.90
2022-08-19T14:50:47.424Z,32.90
2022-08-19T14:53:14.391Z,32.90
2022-08-19T14:55:46.755Z,32.80
2022-08-19T14:58:29.230Z,32.80
2022-08-19T15:01:00.214Z,32.80
2022-08-19T15:03:28.152Z,32.80
2022-08-19T15:05:58.511Z,32.80
2022-08-19T15:08:27.367Z,32.80
2022-08-19T15:10:54.748Z,32.80
2022-08-19T15:13:22.223Z,32.90
2022-08-19T15:15:49.813Z,32.80
2022-08-19T15:18:16.808Z,32.80
2022-08-19T15:20:46.639Z,32.80
2022-08-19T15:23:16.442Z,32.80
2022-08-19T15:25:44.404Z,32.80
2022-08-19T15:28:13.221Z,32.80
2022-08-19T15:30:41.506Z,32.80
2022-08-19T15:33:09.013Z,32.80
2022-08-19T15:35:35.887Z,32.80
2022-08-19T15:38:03.530Z,32.80
2022-08-19T15:40:30.644Z,32.80
2022-08-19T15:42:58.753Z,32.80
2022-08-19T15:45:32.474Z,32.80
2022-08-19T15:48:01.699Z,32.80
2022-08-19T15:50:31.826Z,32.80
2022-08-19T15:53:09.427Z,32.80
2022-08-19T15:55:44.451Z,32.70
2022-08-19T15:58:33.198Z,32.70
2022-08-19T16:01:26.973Z,32.60
2022-08-19T16:04:16.482Z,32.50
2022-08-19T16:06:53.638Z,32.40
2022-08-19T16:09:27.543Z,32.30
2022-08-19T16:12:02.805Z,32.20
2022-08-19T16:14:33.989Z,32.10
2022-08-19T16:17:01.934Z,32.00
2022-08-19T16:19:28.856Z,31.90
2022-08-19T16:21:57.349Z,31.80
2022-08-19T16:24:27.570Z,31.70
2022-08-19T16:26:55.878Z,31.60
2022-08-19T16:29:33.870Z,31.50
2022-08-19T16:32:10.306Z,31.40
2022-08-19T16:34:41.348Z,31.20
2022-08-19T16:37:10.038Z,31.20
2022-08-19T16:39:38.210Z,31.00
2022-08-19T16:42:07.809Z,31.00
2022-08-19T16:44:36.597Z,30.90
2022-08-19T16:47:03.675Z,30.80
2022-08-19T16:49:54.076Z,30.80
2022-08-19T16:52:19.797Z,30.70
2022-08-19T16:54:48.332Z,30.70
2022-08-19T16:57:16.007Z,30.70
2022-08-19T16:59:48.224Z,30.60
2022-08-19T17:02:18.227Z,30.60
2022-08-19T17:04:55.728Z,30.50
2022-08-19T17:07:33.158Z,30.50
2022-08-19T17:10:03.609Z,30.50
2022-08-19T17:12:34.996Z,30.40
2022-08-19T17:15:03.545Z,30.40
2022-08-19T17:17:31.521Z,30.40
2022-08-19T17:20:01.122Z,30.30
2022-08-19T17:22:28.748Z,30.30
2022-08-19T17:24:58.343Z,30.20
2022-08-19T17:27:32.248Z,30.20
2022-08-19T17:30:05.098Z,30.10
2022-08-19T17:32:34.971Z,30.00
2022-08-19T17:35:04.530Z,29.90
2022-08-19T17:37:31.491Z,29.90
2022-08-19T17:39:58.447Z,29.80
2022-08-19T17:42:25.394Z,29.80
2022-08-19T17:44:52.291Z,29.70
2022-08-19T17:47:20.090Z,29.60
2022-08-19T17:49:47.595Z,29.60
2022-08-19T17:52:14.560Z,29.50
2022-08-19T17:54:41.653Z,29.40
2022-08-19T17:57:09.500Z,29.40
2022-08-19T17:59:37.460Z,29.30
2022-08-19T18:02:07.030Z,29.20
2022-08-19T18:04:38.233Z,29.20
2022-08-19T18:07:06.228Z,29.10
2022-08-19T18:09:41.863Z,29.00
2022-08-19T18:12:15.578Z,29.00
2022-08-19T18:14:43.177Z,28.90
2022-08-19T18:17:14.292Z,28.80
2022-08-19T18:19:44.135Z,28.70
2022-08-19T18:22:33.851Z,28.60
2022-08-19T18:25:01.244Z,28.60
2022-08-19T18:27:28.366Z,28.50
2022-08-19T18:29:59.181Z,28.50
2022-08-19T18:32:34.981Z,28.30
2022-08-19T18:35:06.431Z,28.30
2022-08-19T18:37:33.330Z,28.20
2022-08-19T18:40:18.504Z,28.20
2022-08-19T18:43:06.115Z,28.10
2022-08-19T18:45:52.133Z,28.00
2022-08-19T18:48:38.191Z,27.90
2022-08-19T18:51:06.987Z,27.90
2022-08-19T18:53:38.307Z,27.80
2022-08-19T18:56:07.999Z,27.70
2022-08-19T18:58:36.173Z,27.70
2022-08-19T19:01:14.788Z,27.60
2022-08-19T19:03:53.272Z,27.50
2022-08-19T19:06:25.586Z,27.40
2022-08-19T19:08:54.908Z,27.30
2022-08-19T19:11:38.779Z,27.20
2022-08-19T19:14:23.022Z,27.20
2022-08-19T19:17:06.381Z,27.10
2022-08-19T19:19:34.772Z,27.00
2022-08-19T19:22:04.479Z,27.00
2022-08-19T19:24:37.670Z,26.90
2022-08-19T19:27:08.308Z,26.90
2022-08-19T19:29:37.032Z,26.80
2022-08-19T19:32:26.867Z,26.80
2022-08-19T19:34:54.367Z,26.70
2022-08-19T19:37:22.439Z,26.70
2022-08-19T19:39:49.727Z,26.60
2022-08-19T19:42:21.147Z,26.60
2022-08-19T19:44:51.817Z,26.50
2022-08-19T19:47:19.848Z,26.50
2022-08-19T19:52:41.294Z,26.40
2022-08-19T19:55:15.510Z,26.40
2022-08-19T19:57:42.484Z,26.40
2022-08-19T20:00:13.033Z,26.30
2022-08-19T20:02:39.904Z,26.30
2022-08-19T20:05:07.362Z,26.30
2022-08-19T20:07:52.630Z,26.30
2022-08-19T20:10:19.749Z,26.20
2022-08-19T20:12:46.634Z,26.20
2022-08-19T20:15:14.792Z,26.10
2022-08-19T20:17:42.936Z,26.10
2022-08-19T20:20:16.007Z,26.10
2022-08-19T20:22:45.809Z,26.00
2022-08-19T20:25:16.146Z,26.00
2022-08-19T20:27:43.905Z,26.00
2022-08-19T20:30:19.542Z,25.90
2022-08-19T20:32:50.560Z,25.80
2022-08-19T20:35:21.025Z,25.80
2022-08-19T20:37:49.141Z,25.80
2022-08-19T20:40:16.907Z,25.80
2022-08-19T20:42:50.476Z,25.70
2022-08-19T20:45:33.110Z,25.70
2022-08-19T20:48:02.803Z,25.60
2022-08-19T20:50:32.613Z,25.60
2022-08-19T20:52:59.852Z,25.50
2022-08-19T20:55:28.362Z,25.50
2022-08-19T20:57:55.554Z,25.50
2022-08-19T21:00:22.583Z,25.40
2022-08-19T21:02:49.472Z,25.40
2022-08-19T21:05:16.356Z,25.30
2022-08-19T21:07:44.314Z,25.30
2022-08-19T21:10:11.718Z,25.20
2022-08-19T21:12:39.269Z,25.20
2022-08-19T21:15:07.142Z,25.20
2022-08-19T21:17:34.126Z,25.20
2022-08-19T21:20:01.079Z,25.10
2022-08-19T21:22:28.125Z,25.10
2022-08-19T21:24:55.093Z,25.10
2022-08-19T21:27:22.007Z,25.00
2022-08-19T21:29:49.039Z,25.00
2022-08-19T21:32:16.713Z,25.00
2022-08-19T21:34:46.340Z,25.00
2022-08-19T21:37:25.287Z,24.90
2022-08-19T21:39:56.885Z,24.80
2022-08-19T21:42:24.699Z,24.80
2022-08-19T21:44:51.940Z,24.80
2022-08-19T21:47:19.897Z,24.80
2022-08-19T21:49:46.903Z,24.80
2022-08-19T21:52:23.570Z,24.70
2022-08-19T21:54:51.177Z,24.70
2022-08-19T21:57:18.781Z,24.70
2022-08-19T21:59:45.805Z,24.70
2022-08-19T22:02:20.348Z,24.70
2022-08-19T22:04:50.825Z,24.70
2022-08-19T22:07:19.505Z,24.60
2022-08-19T22:09:49.794Z,24.60
2022-08-19T22:12:36.417Z,24.60
2022-08-19T22:15:07.971Z,24.60
2022-08-19T22:17:36.155Z,24.60
2022-08-19T22:20:04.988Z,24.60
2022-08-19T22:22:34.969Z,24.60
2022-08-19T22:25:31.222Z,24.50
2022-08-19T22:28:01.856Z,24.50
2022-08-19T22:30:33.339Z,24.50
2022-08-19T22:33:05.324Z,24.50
2022-08-19T22:35:37.655Z,24.50
2022-08-19T22:38:07.498Z,24.40
2022-08-19T22:40:39.512Z,24.40
2022-08-19T22:43:19.004Z,24.40
2022-08-19T22:45:48.595Z,24.40
2022-08-19T22:48:19.688Z,24.40
2022-08-19T22:51:08.267Z,24.40
2022-08-19T22:53:39.236Z,24.30
2022-08-19T22:56:14.978Z,24.30
2022-08-19T22:58:43.851Z,24.30
2022-08-19T23:01:23.730Z,24.30
2022-08-19T23:03:56.702Z,24.30
2022-08-19T23:06:23.864Z,24.30
2022-08-19T23:09:01.128Z,24.30
2022-08-19T23:11:29.236Z,24.30
2022-08-19T23:13:56.139Z,24.30
2022-08-19T23:16:23.343Z,24.30
2022-08-19T23:18:50.262Z,24.30
2022-08-19T23:21:24.665Z,24.30
2022-08-19T23:23:51.619Z,24.30
2022-08-19T23:26:18.470Z,24.30
2022-08-19T23:29:04.151Z,24.30
2022-08-19T23:31:31.605Z,24.20
2022-08-19T23:33:59.882Z,24.20
2022-08-19T23:36:27.121Z,24.20
2022-08-19T23:38:54.615Z,24.20
2022-08-19T23:41:23.282Z,24.20
2022-08-19T23:43:50.839Z,24.20
2022-08-19T23:46:27.450Z,24.10
2022-08-19T23:48:56.913Z,24.10
2022-08-19T23:51:24.546Z,24.10
2022-08-19T23:53:51.484Z,24.10
2022-08-19T23:56:18.431Z,24.10
2022-08-19T23:58:47.086Z,24.10
